KAOO/AOO METAR and TAF weather

Enter ICAO airport designator
Station Type Date Time Source
KAOO METAR 2019/10/20 18:53 UTC NOAA

KAOO 201853Z AUTO 08004KT 10SM OVC011 12/09 A2994 RMK AO2 SLP140 T01220089 $


Station Type Date Time Source
KAOO Decoded METAR 2019/10/20 18:53 UTC NOAA

ALTOONA-BLAIR COUNTY AIRPORT, PA, United States (KAOO) 40-18N 78-19W 455M
Oct 20, 2019 - 02:53 PM EDT / 2019.10.20 1853 UTC
Wind: from the E (080 degrees) at 5 MPH (4 KT):0
Visibility: 10 mile(s):0
Sky conditions: overcast
Temperature: 54.0 F (12.2 C)
Dew Point: 48.0 F (8.9 C)
Relative Humidity: 80%
Pressure (altimeter): 29.94 in. Hg (1013 hPa)
ob: KAOO 201853Z AUTO 08004KT 10SM OVC011 12/09 A2994 RMK AO2 SLP140 T01220089
cycle: 19

Station Type Date Time Source
KAOO TAF 2019/10/20 18:42 UTC NOAA

TAF KAOO 201741Z 2018/2118 12005KT P6SM BKN009 OVC012
FM210300 VRB03KT 3SM BR OVC008
FM211400 14008KT P6SM SKC

Example: see airport list